Time;durP1;ratioP1;P1;durP2;ratioP2;P2;SDS_P1;SDS_P2;PMS_P1;PMS_P2;Temp;Humidity;BMP_temperature;BMP_pressure;BME280_temperature;BME280_humidity;BME280_pressure;Samples;Min_cycle;Max_cycle;Signal;HPM_P1;HPM_P2
2023/03/17 00:00:42;;;;;;;136.32;21.13;;;11.60;78.90;;;;;;5076800;28;20202;-57
2023/03/17 00:03:12;;;;;;;128.73;19.00;;;11.50;79.00;;;;;;5059979;28;20082;-57
2023/03/17 00:05:38;;;;;;;119.28;20.20;;;11.50;79.00;;;;;;5059604;28;20034;-58
2023/03/17 00:08:12;;;;;;;113.93;19.45;;;11.50;79.10;;;;;;5059829;28;20033;-58
2023/03/17 00:10:37;;;;;;;128.95;18.98;;;11.50;79.00;;;;;;5076802;28;20030;-57
2023/03/17 00:13:03;;;;;;;121.32;18.23;;;11.50;79.00;;;;;;5076147;28;20079;-57
2023/03/17 00:15:29;;;;;;;112.15;17.30;;;11.40;78.90;;;;;;5043277;28;20076;-57
2023/03/17 00:17:55;;;;;;;113.43;19.42;;;11.40;79.00;;;;;;5043246;28;20125;-57
2023/03/17 00:20:29;;;;;;;111.90;18.48;;;11.40;79.10;;;;;;5059918;28;20057;-56
2023/03/17 00:22:56;;;;;;;102.70;18.23;;;11.30;79.10;;;;;;5059929;28;20083;-56
2023/03/17 00:25:27;;;;;;;106.75;18.70;;;11.30;79.30;;;;;;5076222;28;20041;-56
2023/03/17 00:27:53;;;;;;;109.53;16.55;;;11.30;79.30;;;;;;5075460;28;20272;-56
2023/03/17 00:30:20;;;;;;;104.85;18.65;;;11.20;79.30;;;;;;5076436;28;20041;-56
2023/03/17 00:32:46;;;;;;;111.43;16.98;;;11.20;79.40;;;;;;5044330;28;20037;-56
2023/03/17 00:35:16;;;;;;;95.20;17.75;;;11.20;79.50;;;;;;5059722;28;20026;-56
2023/03/17 00:37:42;;;;;;;87.47;16.30;;;11.20;79.60;;;;;;5044310;28;20029;-56
2023/03/17 00:40:16;;;;;;;91.28;15.77;;;11.20;79.60;;;;;;5059226;28;20026;-56
2023/03/17 00:42:42;;;;;;;104.90;17.52;;;11.10;79.60;;;;;;5064664;28;20060;-56
2023/03/17 00:45:09;;;;;;;79.13;15.52;;;11.10;79.70;;;;;;5047047;28;20041;-56
2023/03/17 00:47:34;;;;;;;92.45;17.02;;;11.10;79.70;;;;;;5046978;28;20055;-56
2023/03/17 00:50:00;;;;;;;83.35;14.50;;;11.00;79.70;;;;;;5063183;28;20034;-56
2023/03/17 00:52:25;;;;;;;77.85;15.85;;;11.00;79.70;;;;;;5047031;28;20491;-55
2023/03/17 00:54:51;;;;;;;95.90;15.90;;;11.00;79.80;;;;;;5046805;28;20029;-55
2023/03/17 00:57:17;;;;;;;94.07;14.88;;;11.00;79.80;;;;;;5063517;28;20132;-56
2023/03/17 00:59:42;;;;;;;79.57;14.80;;;11.00;79.90;;;;;;5062792;28;20117;-56
2023/03/17 01:02:10;;;;;;;92.63;15.05;;;10.90;79.80;;;;;;5079875;28;20044;-56
2023/03/17 01:04:36;;;;;;;73.03;14.77;;;10.90;79.80;;;;;;5047815;28;20053;-56
2023/03/17 01:07:02;;;;;;;92.25;14.27;;;10.90;80.50;;;;;;5062728;28;20036;-56
2023/03/17 01:09:28;;;;;;;69.50;14.85;;;10.90;79.80;;;;;;5046672;28;20029;-56
2023/03/17 01:11:54;;;;;;;72.88;13.90;;;10.90;79.80;;;;;;5063185;28;20025;-56
2023/03/17 01:14:20;;;;;;;70.70;12.77;;;10.80;79.80;;;;;;5046488;28;20120;-56
2023/03/17 01:16:46;;;;;;;61.92;12.95;;;10.80;79.90;;;;;;5047689;28;20026;-56
2023/03/17 01:19:12;;;;;;;73.43;12.70;;;10.80;79.90;;;;;;5046266;28;20366;-57
2023/03/17 01:21:38;;;;;;;66.45;12.10;;;10.80;79.90;;;;;;5079645;28;20029;-56
2023/03/17 01:24:04;;;;;;;61.92;11.70;;;10.80;80.00;;;;;;5047814;28;20026;-56
2023/03/17 01:26:29;;;;;;;74.45;13.52;;;10.70;79.90;;;;;;5047732;28;20072;-56
2023/03/17 01:28:55;;;;;;;61.17;12.20;;;10.70;80.60;;;;;;5079750;28;20017;-56
2023/03/17 01:31:21;;;;;;;55.40;11.63;;;10.70;80.00;;;;;;5079560;28;20044;-56
2023/03/17 01:33:47;;;;;;;65.50;11.85;;;10.70;80.10;;;;;;5047573;28;20022;-56
2023/03/17 01:36:14;;;;;;;57.80;11.52;;;10.60;80.10;;;;;;5079386;28;20065;-56
2023/03/17 01:38:40;;;;;;;51.05;10.98;;;10.60;80.10;;;;;;5047364;28;20121;-56
2023/03/17 01:41:05;;;;;;;59.35;11.85;;;10.60;80.20;;;;;;5079514;28;20025;-56
2023/03/17 01:43:31;;;;;;;63.30;12.25;;;10.60;80.20;;;;;;5078833;28;20033;-56
2023/03/17 01:46:16;;;;;;;58.25;11.45;;;10.60;80.20;;;;;;5047361;28;20042;-56
2023/03/17 01:49:04;;;;;;;79.03;13.20;;;10.50;80.20;;;;;;5045783;28;20059;-56
2023/03/17 01:51:54;;;;;;;57.97;11.23;;;10.50;80.20;;;;;;5046797;28;20094;-56
2023/03/17 01:54:28;;;;;;;65.75;11.43;;;10.50;80.30;;;;;;5025449;28;20071;-56
2023/03/17 01:56:59;;;;;;;54.60;11.23;;;10.40;80.20;;;;;;5042128;28;20022;-55
2023/03/17 01:59:27;;;;;;;48.15;10.23;;;10.40;80.20;;;;;;5058956;28;20022;-56
2023/03/17 02:01:56;;;;;;;48.50;10.43;;;10.50;80.30;;;;;;5050042;28;20029;-56
2023/03/17 02:04:22;;;;;;;55.67;11.63;;;10.40;80.30;;;;;;5062532;28;20021;-56
2023/03/17 02:06:48;;;;;;;48.53;10.27;;;10.40;80.30;;;;;;5062222;28;20506;-56
2023/03/17 02:09:14;;;;;;;43.60;10.38;;;10.40;80.40;;;;;;5062096;28;20022;-56
2023/03/17 02:11:39;;;;;;;40.72;10.25;;;10.30;80.60;;;;;;5044928;28;20110;-56
2023/03/17 02:14:05;;;;;;;57.58;10.90;;;10.30;80.50;;;;;;5061846;28;20029;-56
2023/03/17 02:16:31;;;;;;;40.60;9.52;;;10.30;80.60;;;;;;5045338;28;20041;-56
2023/03/17 02:18:57;;;;;;;46.65;9.90;;;10.30;80.60;;;;;;5046908;28;20033;-56
2023/03/17 02:21:31;;;;;;;48.67;10.90;;;10.30;81.20;;;;;;5028460;28;20033;-56
2023/03/17 02:23:57;;;;;;;49.38;11.02;;;10.20;80.60;;;;;;5046673;28;20017;-56
2023/03/17 02:26:23;;;;;;;46.35;10.63;;;10.30;80.60;;;;;;5046775;28;20505;-56
2023/03/17 02:28:49;;;;;;;41.03;9.43;;;10.20;80.60;;;;;;5061664;28;20033;-56
2023/03/17 02:31:15;;;;;;;42.45;10.25;;;10.20;80.60;;;;;;5046514;28;20422;-56
2023/03/17 02:33:41;;;;;;;46.88;10.52;;;10.20;80.70;;;;;;5078125;28;20045;-56
2023/03/17 02:36:08;;;;;;;43.67;11.27;;;10.10;80.70;;;;;;5078139;28;20450;-56
2023/03/17 02:38:34;;;;;;;47.08;10.35;;;10.10;80.80;;;;;;5045945;28;20062;-56
2023/03/17 02:41:00;;;;;;;44.15;10.32;;;10.10;80.80;;;;;;5046425;28;20147;-56
2023/03/17 02:43:25;;;;;;;53.08;10.95;;;10.10;80.90;;;;;;5045065;28;20032;-56
2023/03/17 02:45:51;;;;;;;40.53;10.13;;;10.10;81.00;;;;;;5046148;28;20029;-56
2023/03/17 02:48:16;;;;;;;42.50;10.07;;;10.00;81.00;;;;;;5044492;28;20025;-56
2023/03/17 02:50:42;;;;;;;40.47;10.68;;;10.00;81.00;;;;;;5061007;28;20041;-56
2023/03/17 02:53:08;;;;;;;31.95;8.65;;;10.10;81.10;;;;;;5044523;28;20045;-56
2023/03/17 02:55:33;;;;;;;35.13;9.93;;;10.00;81.00;;;;;;5044228;28;20033;-56
2023/03/17 02:58:01;;;;;;;28.23;8.73;;;10.00;81.00;;;;;;5044792;28;20510;-56
2023/03/17 03:00:27;;;;;;;39.65;9.43;;;10.00;81.00;;;;;;5044539;28;20099;-56
2023/03/17 03:02:52;;;;;;;34.75;9.15;;;10.00;81.10;;;;;;5045740;28;20025;-56
2023/03/17 03:05:18;;;;;;;28.48;9.30;;;9.90;81.10;;;;;;5044211;28;20551;-56
2023/03/17 03:07:44;;;;;;;34.28;8.32;;;9.90;81.20;;;;;;5060934;28;20029;-56
2023/03/17 03:10:10;;;;;;;40.88;9.13;;;9.90;81.20;;;;;;5045659;28;20075;-56
2023/03/17 03:12:35;;;;;;;42.83;9.00;;;9.90;81.30;;;;;;5044212;28;20033;-56
2023/03/17 03:15:01;;;;;;;31.35;8.23;;;9.80;81.60;;;;;;5045203;28;20029;-56
2023/03/17 03:17:26;;;;;;;26.85;8.02;;;9.80;81.80;;;;;;5044352;28;20025;-56
2023/03/17 03:19:52;;;;;;;31.15;8.55;;;9.90;81.90;;;;;;5027680;28;20059;-56
2023/03/17 03:22:18;;;;;;;34.10;8.90;;;9.80;82.10;;;;;;5044143;28;20040;-56
2023/03/17 03:24:43;;;;;;;37.90;8.93;;;9.80;82.20;;;;;;5044955;28;20057;-56
2023/03/17 03:27:09;;;;;;;35.67;9.32;;;9.80;82.30;;;;;;5043885;28;20112;-56
2023/03/17 03:29:35;;;;;;;27.15;8.23;;;9.80;82.30;;;;;;5043898;28;20092;-56
2023/03/17 03:32:00;;;;;;;31.45;7.60;;;9.70;82.40;;;;;;5043738;28;20466;-56
2023/03/17 03:34:26;;;;;;;30.40;8.30;;;9.70;82.60;;;;;;5043920;28;20022;-56
2023/03/17 03:36:52;;;;;;;33.35;8.10;;;9.80;82.70;;;;;;5043877;28;20060;-56
2023/03/17 03:39:17;;;;;;;20.45;7.85;;;9.80;82.70;;;;;;5043835;28;20038;-56
2023/03/17 03:41:43;;;;;;;25.60;7.05;;;9.70;82.70;;;;;;5043619;28;20022;-56
2023/03/17 03:44:08;;;;;;;34.50;7.80;;;9.70;82.80;;;;;;5044132;28;20099;-56
2023/03/17 03:46:34;;;;;;;24.02;7.32;;;9.70;82.80;;;;;;5045175;28;20030;-56
2023/03/17 03:49:00;;;;;;;27.10;7.93;;;9.70;82.90;;;;;;5043568;28;20086;-56
2023/03/17 03:51:25;;;;;;;25.20;8.48;;;9.70;82.90;;;;;;5043755;28;20075;-55
2023/03/17 03:53:51;;;;;;;37.00;7.82;;;9.70;83.00;;;;;;5043739;28;20029;-56
2023/03/17 03:56:16;;;;;;;24.30;7.03;;;9.70;83.10;;;;;;5043693;28;20060;-55
2023/03/17 03:58:42;;;;;;;32.22;8.10;;;9.60;83.00;;;;;;5043571;28;20041;-56
2023/03/17 04:01:08;;;;;;;28.58;8.18;;;9.60;83.00;;;;;;5060069;28;20033;-56
2023/03/17 04:03:37;;;;;;;25.40;7.97;;;9.60;83.00;;;;;;5044805;28;20025;-56
2023/03/17 04:06:02;;;;;;;22.20;7.25;;;9.60;83.00;;;;;;5043549;28;20093;-56
2023/03/17 04:08:28;;;;;;;31.92;7.80;;;9.60;83.00;;;;;;5043316;28;20041;-56
2023/03/17 04:10:54;;;;;;;23.60;7.00;;;9.60;83.10;;;;;;5043412;28;20211;-56
2023/03/17 04:13:21;;;;;;;22.95;6.95;;;9.60;83.00;;;;;;5044804;28;20026;-56
2023/03/17 04:15:46;;;;;;;27.15;7.18;;;9.50;83.20;;;;;;5044352;28;20076;-56
2023/03/17 04:18:12;;;;;;;22.48;7.10;;;9.50;83.00;;;;;;5043065;28;20018;-56
2023/03/17 04:20:47;;;;;;;27.95;7.25;;;9.50;83.00;;;;;;5043081;28;20109;-56
2023/03/17 04:23:12;;;;;;;23.10;7.07;;;9.50;83.00;;;;;;5043341;28;20029;-58
2023/03/17 04:25:38;;;;;;;22.75;7.05;;;9.50;83.00;;;;;;5047633;28;20041;-57
2023/03/17 04:28:04;;;;;;;24.60;7.40;;;9.40;83.00;;;;;;5063163;28;20052;-58
2023/03/17 04:30:30;;;;;;;18.23;6.90;;;9.40;83.00;;;;;;5062830;28;20044;-57
2023/03/17 04:32:55;;;;;;;23.17;7.35;;;9.40;82.90;;;;;;5064121;28;20384;-57
2023/03/17 04:35:21;;;;;;;86.13;12.57;;;9.50;83.00;;;;;;5062883;28;20026;-57
2023/03/17 04:37:47;;;;;;;54.38;10.43;;;9.40;82.90;;;;;;5063238;28;20036;-57
2023/03/17 04:40:13;;;;;;;33.30;8.73;;;9.40;83.50;;;;;;5062947;28;20078;-57
2023/03/17 04:42:39;;;;;;;43.42;9.82;;;9.40;82.80;;;;;;5029915;28;20071;-57
2023/03/17 04:45:05;;;;;;;39.08;10.40;;;9.30;82.70;;;;;;5063217;28;20033;-58
2023/03/17 04:47:31;;;;;;;34.05;9.25;;;9.30;82.70;;;;;;5063176;28;20030;-57
2023/03/17 04:49:57;;;;;;;47.05;9.05;;;9.40;82.70;;;;;;5062766;28;20472;-57
2023/03/17 04:52:22;;;;;;;39.10;9.27;;;9.30;82.70;;;;;;5046333;28;20056;-57
2023/03/17 04:54:48;;;;;;;32.58;8.80;;;9.30;82.70;;;;;;5062965;28;20025;-57
2023/03/17 04:57:14;;;;;;;28.02;9.13;;;9.30;82.70;;;;;;5062841;28;20057;-57
2023/03/17 04:59:39;;;;;;;34.63;8.55;;;9.30;83.40;;;;;;5062826;28;20039;-57
2023/03/17 05:02:06;;;;;;;30.45;7.43;;;9.20;82.60;;;;;;5046311;28;20032;-57
2023/03/17 05:04:31;;;;;;;44.28;8.50;;;9.30;82.70;;;;;;5064148;28;20033;-57
2023/03/17 05:06:57;;;;;;;37.08;7.93;;;9.20;82.60;;;;;;5064260;28;20048;-57
2023/03/17 05:09:23;;;;;;;43.78;9.40;;;9.20;82.70;;;;;;5062629;28;20044;-57
2023/03/17 05:11:50;;;;;;;37.47;8.60;;;9.30;82.70;;;;;;5062805;28;20051;-58
2023/03/17 05:14:16;;;;;;;37.40;9.20;;;9.20;82.70;;;;;;5062947;28;20082;-57
2023/03/17 05:16:41;;;;;;;34.83;8.23;;;9.20;82.60;;;;;;5046012;28;20025;-57
2023/03/17 05:19:07;;;;;;;39.80;8.50;;;9.20;82.60;;;;;;5045960;28;20365;-57
2023/03/17 05:21:32;;;;;;;39.60;8.98;;;9.20;82.70;;;;;;5046006;28;20029;-57
2023/03/17 05:23:58;;;;;;;48.35;8.30;;;9.20;82.70;;;;;;5062770;28;20021;-57
2023/03/17 05:26:23;;;;;;;25.35;7.28;;;9.10;82.60;;;;;;5062726;28;20096;-57
2023/03/17 05:28:49;;;;;;;38.33;7.95;;;9.10;82.60;;;;;;5064875;28;20119;-57
2023/03/17 05:31:15;;;;;;;30.90;7.95;;;9.10;82.60;;;;;;5049543;28;20025;-57
2023/03/17 05:33:40;;;;;;;30.98;7.43;;;9.10;82.60;;;;;;5066179;28;20029;-57
2023/03/17 05:36:06;;;;;;;41.88;7.95;;;9.10;82.70;;;;;;5067288;28;20078;-57
2023/03/17 05:38:32;;;;;;;24.70;7.43;;;9.10;82.70;;;;;;5066163;28;20175;-57
2023/03/17 05:40:57;;;;;;;30.45;7.15;;;9.10;82.70;;;;;;5049531;28;20021;-57
2023/03/17 05:43:23;;;;;;;29.33;7.40;;;9.10;82.70;;;;;;5067473;28;20176;-57
2023/03/17 05:45:49;;;;;;;28.67;7.25;;;9.10;82.80;;;;;;5067201;28;20487;-57
2023/03/17 05:48:15;;;;;;;25.50;6.88;;;9.00;83.10;;;;;;5066058;28;20036;-57
2023/03/17 05:50:41;;;;;;;31.45;6.97;;;9.00;83.20;;;;;;5066962;28;20049;-57
2023/03/17 05:53:07;;;;;;;22.70;6.82;;;9.00;83.30;;;;;;5048957;28;20510;-57
2023/03/17 05:55:33;;;;;;;25.33;6.57;;;9.00;83.40;;;;;;5067145;28;20057;-57
2023/03/17 05:57:59;;;;;;;22.58;6.82;;;9.00;83.60;;;;;;5065591;28;20029;-57
2023/03/17 06:00:27;;;;;;;35.28;7.07;;;8.90;83.70;;;;;;5065699;28;20025;-57
2023/03/17 06:02:53;;;;;;;25.90;6.57;;;8.90;83.70;;;;;;5065696;28;20096;-57
2023/03/17 06:05:18;;;;;;;25.58;6.20;;;8.90;83.50;;;;;;5066897;28;20033;-57
2023/03/17 06:07:44;;;;;;;23.83;6.75;;;8.90;83.60;;;;;;5066885;28;20085;-57
2023/03/17 06:10:10;;;;;;;15.18;5.75;;;8.90;83.40;;;;;;5048907;28;20037;-57
2023/03/17 06:12:36;;;;;;;20.33;6.10;;;8.90;83.40;;;;;;5065303;28;20029;-57
2023/03/17 06:15:02;;;;;;;20.73;5.90;;;8.90;83.40;;;;;;5065345;28;20025;-56
2023/03/17 06:17:27;;;;;;;31.88;6.55;;;8.90;83.50;;;;;;5065274;28;20029;-56
2023/03/17 06:19:53;;;;;;;24.80;5.93;;;8.90;83.60;;;;;;5066390;28;20034;-56
2023/03/17 06:22:19;;;;;;;28.35;6.55;;;8.90;83.70;;;;;;5066612;28;20063;-56
2023/03/17 06:24:45;;;;;;;17.98;6.10;;;8.90;83.80;;;;;;5066601;28;20139;-56
2023/03/17 06:27:11;;;;;;;18.40;5.97;;;8.80;83.70;;;;;;5066248;28;20029;-56
2023/03/17 06:29:37;;;;;;;19.25;5.93;;;8.90;83.80;;;;;;5066306;28;20032;-56
2023/03/17 06:32:03;;;;;;;18.17;5.53;;;8.80;83.60;;;;;;5064810;28;20057;-56
2023/03/17 06:34:28;;;;;;;19.90;5.68;;;8.80;83.60;;;;;;5064964;28;20080;-56
2023/03/17 06:36:54;;;;;;;13.75;5.18;;;8.80;84.30;;;;;;5065069;28;20021;-56
2023/03/17 06:39:20;;;;;;;21.90;5.35;;;8.80;83.60;;;;;;5065703;28;20021;-56
2023/03/17 06:41:46;;;;;;;21.15;6.07;;;8.80;83.60;;;;;;5031650;28;20029;-55
2023/03/17 06:44:11;;;;;;;19.35;4.88;;;8.80;83.60;;;;;;5066350;28;20017;-56
2023/03/17 06:46:37;;;;;;;14.57;5.32;;;8.80;83.60;;;;;;5064616;28;20029;-55
2023/03/17 06:49:03;;;;;;;21.38;5.55;;;8.80;83.60;;;;;;5064694;28;20077;-56
2023/03/17 06:51:29;;;;;;;21.33;6.05;;;8.80;83.60;;;;;;5064536;28;20037;-56
2023/03/17 06:53:55;;;;;;;15.48;5.47;;;8.80;84.30;;;;;;5064507;28;20086;-56
2023/03/17 06:56:20;;;;;;;11.35;4.72;;;8.80;83.70;;;;;;5062806;28;20052;-56
2023/03/17 06:58:46;;;;;;;12.32;5.10;;;8.80;84.30;;;;;;5064242;28;20028;-56
2023/03/17 07:01:13;;;;;;;18.48;5.45;;;8.80;83.70;;;;;;5065819;28;20155;-56
2023/03/17 07:03:39;;;;;;;22.33;5.38;;;8.70;83.70;;;;;;5064543;28;20032;-56
2023/03/17 07:06:05;;;;;;;18.17;5.15;;;8.80;83.70;;;;;;5065420;28;20070;-56
2023/03/17 07:08:31;;;;;;;17.70;5.60;;;8.70;83.60;;;;;;5047869;28;20055;-56
2023/03/17 07:10:57;;;;;;;16.13;5.20;;;8.70;83.60;;;;;;5047647;28;20037;-56
2023/03/17 07:13:23;;;;;;;14.07;5.32;;;8.70;83.60;;;;;;5047685;28;20047;-56
2023/03/17 07:15:49;;;;;;;18.48;5.22;;;8.70;83.60;;;;;;5031310;28;20151;-56
2023/03/17 07:18:15;;;;;;;16.17;4.70;;;8.70;83.60;;;;;;5038993;28;20037;-55
2023/03/17 07:20:41;;;;;;;18.42;4.88;;;8.70;83.60;;;;;;5040917;28;20034;-56
2023/03/17 07:23:11;;;;;;;19.42;4.72;;;8.70;83.60;;;;;;5042100;28;20129;-56
2023/03/17 07:25:38;;;;;;;17.85;5.00;;;8.70;83.60;;;;;;5041907;28;20350;-56
2023/03/17 07:28:03;;;;;;;14.68;4.57;;;8.70;83.50;;;;;;5042096;28;20132;-56
2023/03/17 07:30:29;;;;;;;11.05;4.65;;;8.70;83.50;;;;;;5042255;28;20132;-56
2023/03/17 07:32:54;;;;;;;11.27;5.15;;;8.70;83.50;;;;;;5039100;28;20033;-56
2023/03/17 07:35:21;;;;;;;11.80;4.78;;;8.70;83.50;;;;;;5023127;28;20025;-56
2023/03/17 07:37:46;;;;;;;14.52;4.60;;;8.70;83.40;;;;;;5044177;28;20032;-56
2023/03/17 07:40:12;;;;;;;11.10;4.60;;;8.80;83.50;;;;;;5044131;28;20037;-56
2023/03/17 07:42:38;;;;;;;11.25;5.13;;;8.80;83.60;;;;;;5042581;28;20021;-56
2023/03/17 07:45:04;;;;;;;14.73;5.10;;;8.80;84.10;;;;;;5026742;28;20040;-56
2023/03/17 07:47:30;;;;;;;17.02;5.22;;;8.80;83.50;;;;;;5044713;28;20053;-56
2023/03/17 07:49:56;;;;;;;20.00;5.50;;;8.80;83.40;;;;;;5042269;28;20056;-55
2023/03/17 07:52:21;;;;;;;15.93;4.53;;;8.80;83.40;;;;;;5044263;28;20041;-56
2023/03/17 07:54:47;;;;;;;13.52;4.78;;;8.80;83.40;;;;;;5043199;28;20021;-56
2023/03/17 07:57:15;;;;;;;23.25;5.28;;;8.80;83.40;;;;;;5043395;28;20116;-56
2023/03/17 07:59:40;;;;;;;17.02;4.68;;;8.80;83.40;;;;;;5044457;28;20461;-55
2023/03/17 08:02:06;;;;;;;14.00;4.65;;;8.80;83.40;;;;;;5034077;28;20033;-56
2023/03/17 08:04:32;;;;;;;18.30;4.63;;;8.80;84.00;;;;;;5050950;28;20160;-56
2023/03/17 08:06:57;;;;;;;14.82;4.85;;;8.90;83.40;;;;;;5041172;28;20077;-56
2023/03/17 08:09:23;;;;;;;12.55;5.07;;;8.90;83.30;;;;;;5041289;28;20045;-55
2023/03/17 08:11:48;;;;;;;17.90;4.68;;;8.90;83.40;;;;;;5043055;28;20022;-56
2023/03/17 08:14:14;;;;;;;23.13;5.45;;;8.90;83.30;;;;;;5042444;28;20466;-55
2023/03/17 08:16:40;;;;;;;33.13;5.50;;;8.90;83.40;;;;;;5023322;28;20041;-56
2023/03/17 08:19:06;;;;;;;27.67;5.35;;;9.00;83.80;;;;;;5041554;28;20166;-55
2023/03/17 08:21:32;;;;;;;19.52;5.32;;;9.00;83.50;;;;;;5038909;28;20026;-56
2023/03/17 08:23:57;;;;;;;21.50;5.43;;;9.00;83.50;;;;;;5038705;28;20083;-56
2023/03/17 08:26:23;;;;;;;32.78;6.53;;;9.00;83.40;;;;;;5043011;28;20482;-56
2023/03/17 08:28:49;;;;;;;36.58;7.15;;;9.00;83.40;;;;;;5043193;28;20033;-56
2023/03/17 08:31:19;;;;;;;32.45;7.10;;;9.00;83.40;;;;;;5043330;28;20029;-55
2023/03/17 08:33:46;;;;;;;47.42;7.22;;;9.10;83.60;;;;;;5046166;28;20021;-56
2023/03/17 08:36:12;;;;;;;39.03;6.78;;;9.00;83.60;;;;;;5024658;28;20036;-56
2023/03/17 08:38:39;;;;;;;34.38;6.63;;;9.10;83.80;;;;;;5030809;28;20018;-56
2023/03/17 08:41:06;;;;;;;57.70;8.57;;;9.10;84.40;;;;;;5041628;28;20354;-56
2023/03/17 08:43:32;;;;;;;67.03;8.68;;;9.10;83.70;;;;;;5023330;28;20360;-56
2023/03/17 08:46:22;;;;;;;56.88;9.05;;;9.20;83.80;;;;;;5041470;28;20165;-56
2023/03/17 08:48:48;;;;;;;40.92;8.60;;;9.20;83.90;;;;;;5039556;28;20071;-56
2023/03/17 08:51:14;;;;;;;49.08;8.27;;;9.20;83.90;;;;;;5042731;28;20097;-55
2023/03/17 08:53:40;;;;;;;51.45;8.38;;;9.20;83.80;;;;;;5042632;28;20060;-56
2023/03/17 08:56:06;;;;;;;66.25;10.25;;;9.20;83.70;;;;;;5043058;28;20025;-56
2023/03/17 08:58:32;;;;;;;70.90;9.93;;;9.20;83.90;;;;;;5039780;28;20017;-56
2023/03/17 09:00:59;;;;;;;74.95;10.57;;;9.20;84.00;;;;;;5042825;28;20028;-56
2023/03/17 09:03:24;;;;;;;84.20;10.38;;;9.30;84.10;;;;;;5054162;28;20045;-56
2023/03/17 09:05:50;;;;;;;88.15;12.40;;;9.30;84.10;;;;;;5022084;28;20033;-54
2023/03/17 09:08:16;;;;;;;51.83;9.73;;;9.40;84.50;;;;;;5045158;28;20040;-56
2023/03/17 09:10:42;;;;;;;118.45;13.32;;;9.40;84.30;;;;;;5044437;28;20030;-56
2023/03/17 09:13:07;;;;;;;198.65;18.02;;;9.40;84.20;;;;;;5039569;28;20055;-56
2023/03/17 09:15:33;;;;;;;182.13;19.67;;;9.40;84.10;;;;;;5043620;28;20034;-55
2023/03/17 09:17:59;;;;;;;117.20;15.48;;;9.40;84.40;;;;;;5045330;28;20027;-56
2023/03/17 09:20:25;;;;;;;112.75;14.40;;;9.50;85.20;;;;;;5042667;28;20041;-56
2023/03/17 09:22:51;;;;;;;646.75;57.00;;;9.50;84.50;;;;;;5040145;28;20029;-56
2023/03/17 09:25:17;;;;;;;250.65;27.90;;;9.60;84.60;;;;;;5045546;28;20144;-56
2023/03/17 09:27:43;;;;;;;172.68;20.90;;;9.60;84.50;;;;;;5044598;28;20561;-56
2023/03/17 09:30:09;;;;;;;179.02;20.45;;;9.60;84.60;;;;;;5075475;28;20025;-56
2023/03/17 09:32:36;;;;;;;193.82;21.80;;;9.70;84.80;;;;;;5040878;28;20042;-56
2023/03/17 09:35:04;;;;;;;194.13;21.17;;;9.70;84.80;;;;;;5036098;28;20038;-56
2023/03/17 09:37:29;;;;;;;149.60;19.80;;;9.80;84.90;;;;;;5068534;28;20040;-56
2023/03/17 09:39:56;;;;;;;218.93;22.33;;;9.80;84.90;;;;;;5035572;28;20030;-55
2023/03/17 09:42:37;;;;;;;170.95;18.92;;;9.90;84.90;;;;;;5054483;28;20048;-56
2023/03/17 09:45:17;;;;;;;216.20;25.45;;;9.90;84.70;;;;;;5043805;28;20034;-56
2023/03/17 09:47:58;;;;;;;179.57;22.73;;;9.90;84.80;;;;;;5040546;28;20034;-55
2023/03/17 09:50:26;;;;;;;246.82;25.52;;;10.00;84.80;;;;;;5038611;28;20034;-56
2023/03/17 09:52:55;;;;;;;228.27;26.98;;;10.00;84.70;;;;;;5028079;28;20044;-56
2023/03/17 09:55:32;;;;;;;259.83;25.88;;;10.10;84.80;;;;;;5058815;28;20053;-55
2023/03/17 09:58:02;;;;;;;288.27;27.73;;;10.10;84.90;;;;;;5054968;28;20063;-56
2023/03/17 10:00:28;;;;;;;308.95;33.28;;;10.20;84.80;;;;;;5035290;28;20089;-56
2023/03/17 10:02:57;;;;;;;289.02;32.05;;;10.20;84.70;;;;;;5073282;28;20138;-56
2023/03/17 10:05:30;;;;;;;314.65;33.58;;;10.30;85.00;;;;;;5042119;28;20033;-56
2023/03/17 10:08:20;;;;;;;225.65;28.33;;;10.30;84.90;;;;;;5056630;28;20101;-56
2023/03/17 10:11:08;;;;;;;351.48;36.30;;;10.40;84.90;;;;;;5078934;28;20029;-56
2023/03/17 10:13:56;;;;;;;259.58;28.30;;;10.40;84.90;;;;;;5038388;28;20096;-55
2023/03/17 10:16:50;;;;;;;181.48;22.83;;;10.50;84.80;;;;;;5037892;28;20444;-56
2023/03/17 10:19:32;;;;;;;183.27;23.58;;;10.50;84.30;;;;;;5074527;28;20048;-56
2023/03/17 10:22:28;;;;;;;220.13;28.20;;;10.60;84.20;;;;;;5030305;28;20053;-56
2023/03/17 10:25:01;;;;;;;276.95;30.27;;;10.70;84.60;;;;;;5034043;28;20025;-55
2023/03/17 10:27:29;;;;;;;266.95;32.58;;;10.70;84.60;;;;;;5023061;28;20033;-56
2023/03/17 10:29:55;;;;;;;269.13;30.95;;;10.80;84.80;;;;;;5025129;28;20029;-56
2023/03/17 10:32:21;;;;;;;239.57;28.02;;;10.80;84.80;;;;;;5057108;28;20092;-56
2023/03/17 10:34:47;;;;;;;284.55;33.85;;;10.90;84.80;;;;;;5082174;28;20048;-56
2023/03/17 10:37:21;;;;;;;283.80;33.38;;;11.00;84.80;;;;;;5044778;28;20100;-56
2023/03/17 10:39:52;;;;;;;256.40;30.13;;;11.00;84.60;;;;;;5062978;28;20018;-55
2023/03/17 10:42:31;;;;;;;238.80;28.45;;;11.10;85.30;;;;;;5067016;28;20056;-56
2023/03/17 10:45:06;;;;;;;272.25;32.05;;;11.10;84.50;;;;;;5039058;28;20180;-56
2023/03/17 10:47:36;;;;;;;260.60;31.13;;;11.20;84.70;;;;;;5037071;28;20029;-56
2023/03/17 10:50:31;;;;;;;270.50;29.70;;;11.30;84.70;;;;;;5022614;28;20040;-56
2023/03/17 10:53:07;;;;;;;191.55;26.35;;;11.30;84.70;;;;;;5027135;28;20136;-56
2023/03/17 10:55:39;;;;;;;284.23;33.72;;;11.40;84.50;;;;;;5040991;28;20105;-56
2023/03/17 10:58:18;;;;;;;286.45;31.33;;;11.50;84.70;;;;;;5038335;28;20131;-56
2023/03/17 11:00:57;;;;;;;261.42;29.42;;;11.60;85.50;;;;;;5039536;28;20056;-56
2023/03/17 11:03:24;;;;;;;264.88;28.80;;;11.60;84.70;;;;;;5038003;28;20041;-56
2023/03/17 11:06:10;;;;;;;306.73;37.40;;;11.70;84.60;;;;;;5005715;28;20041;-56
2023/03/17 11:08:54;;;;;;;;;;;11.70;84.30;;;;;;5037319;28;20033;-56
2023/03/17 11:11:30;;;;;;;185.50;24.02;;;11.80;84.20;;;;;;5037361;28;20337;-55
2023/03/17 11:14:09;;;;;;;239.35;25.20;;;11.90;84.10;;;;;;5072691;28;20022;-56
2023/03/17 11:16:36;;;;;;;172.98;21.08;;;11.90;83.60;;;;;;5050432;28;20105;-56
2023/03/17 11:19:02;;;;;;;138.63;19.42;;;12.00;83.50;;;;;;5044811;28;20025;-56
2023/03/17 11:21:33;;;;;;;201.40;23.92;;;12.00;83.10;;;;;;5025075;28;20036;-56
2023/03/17 11:24:03;;;;;;;173.98;23.85;;;12.00;83.20;;;;;;5025003;28;20033;-56
2023/03/17 11:26:45;;;;;;;134.25;18.75;;;12.10;83.40;;;;;;5042948;28;20067;-56
2023/03/17 11:29:35;;;;;;;146.90;18.52;;;12.10;82.60;;;;;;5046194;28;20025;-56
2023/03/17 11:32:32;;;;;;;170.95;20.20;;;12.20;82.40;;;;;;5048287;28;20047;-56
2023/03/17 11:35:12;;;;;;;210.30;22.85;;;12.30;82.50;;;;;;5047513;28;20033;-55
2023/03/17 11:37:56;;;;;;;175.73;21.95;;;12.30;82.80;;;;;;5059115;28;20048;-56
2023/03/17 11:40:28;;;;;;;163.85;21.60;;;12.30;83.00;;;;;;5042795;28;20025;-56
2023/03/17 11:43:11;;;;;;;203.52;23.48;;;12.40;82.90;;;;;;5043278;28;20052;-56
2023/03/17 11:45:49;;;;;;;162.52;21.17;;;12.40;83.00;;;;;;5045335;28;20033;-56
2023/03/17 11:48:37;;;;;;;211.32;22.30;;;12.50;82.90;;;;;;5034275;28;20044;-56
2023/03/17 11:51:20;;;;;;;168.85;19.00;;;12.50;82.80;;;;;;5045325;28;20029;-56
2023/03/17 11:53:46;;;;;;;181.63;21.13;;;12.60;82.70;;;;;;5033245;28;20108;-55
2023/03/17 11:56:18;;;;;;;222.52;23.58;;;12.70;82.70;;;;;;5067965;28;20037;-56
2023/03/17 11:58:47;;;;;;;169.43;20.02;;;12.70;82.90;;;;;;5034731;28;20022;-56
2023/03/17 12:01:15;;;;;;;127.45;16.45;;;12.70;82.80;;;;;;5038820;28;20026;-56
2023/03/17 12:03:45;;;;;;;199.20;21.70;;;12.80;81.30;;;;;;5052277;28;20029;-56
2023/03/17 12:06:33;;;;;;;251.88;26.77;;;12.90;81.90;;;;;;5067322;28;20057;-56
2023/03/17 12:09:24;;;;;;;221.93;24.70;;;12.90;82.60;;;;;;5067179;28;20098;-56
2023/03/17 12:11:50;;;;;;;186.93;20.70;;;13.00;82.60;;;;;;5032108;28;20195;-56
2023/03/17 12:14:22;;;;;;;228.38;26.05;;;13.10;82.20;;;;;;5060232;28;20132;-55
2023/03/17 12:16:51;;;;;;;256.10;26.15;;;13.20;82.30;;;;;;5066636;28;20032;-56
2023/03/17 12:19:19;;;;;;;283.58;29.60;;;13.30;82.00;;;;;;5034094;28;20056;-56
2023/03/17 12:21:56;;;;;;;198.43;23.90;;;13.30;81.60;;;;;;5064909;28;20132;-56
2023/03/17 12:24:35;;;;;;;202.40;22.80;;;13.40;81.30;;;;;;5039680;28;20472;-56
2023/03/17 12:27:27;;;;;;;138.07;16.95;;;13.40;81.50;;;;;;5004621;28;20025;-56
2023/03/17 12:30:27;;;;;;;166.40;17.05;;;13.40;80.80;;;;;;5065766;28;20510;-56
2023/03/17 12:33:20;;;;;;;152.18;18.05;;;13.50;79.70;;;;;;5039915;28;20029;-56
2023/03/17 12:35:45;;;;;;;155.65;19.27;;;13.50;80.20;;;;;;5062371;28;20135;-56
2023/03/17 12:38:34;;;;;;;159.38;19.25;;;13.60;81.00;;;;;;5035371;28;20173;-55
2023/03/17 12:41:33;;;;;;;145.88;18.20;;;13.60;80.60;;;;;;5033771;28;20065;-56